createdAt,value
2023-01-13T00:02:23.506Z,100470.06
2023-01-13T00:05:26.748Z,100468.91
2023-01-13T00:08:29.649Z,100470.59
2023-01-13T00:11:32.386Z,100464.59
2023-01-13T00:14:38.329Z,100463.66
2023-01-13T00:17:41.115Z,100459.25
2023-01-13T00:20:46.764Z,100465.44
2023-01-13T00:23:51.357Z,100470.41
2023-01-13T00:26:53.937Z,100464.09
2023-01-13T00:29:56.967Z,100455.62
2023-01-13T00:33:00.062Z,100451.66
2023-01-13T00:36:04.336Z,100447.63
2023-01-13T00:39:06.930Z,100450.00
2023-01-13T00:42:29.020Z,100445.69
2023-01-13T00:45:31.485Z,100454.88
2023-01-13T00:48:34.731Z,100453.44
2023-01-13T00:51:37.256Z,100464.78
2023-01-13T00:54:40.050Z,100456.81
2023-01-13T00:57:42.460Z,100461.22
2023-01-13T01:00:45.895Z,100456.44
2023-01-13T01:03:49.834Z,100465.50
2023-01-13T01:06:52.823Z,100463.91
2023-01-13T01:09:55.359Z,100462.59
2023-01-13T01:12:58.227Z,100454.19
2023-01-13T01:16:06.782Z,100454.25
2023-01-13T01:19:10.367Z,100454.09
2023-01-13T01:22:12.941Z,100447.81
2023-01-13T01:25:15.755Z,100442.56
2023-01-13T01:28:19.411Z,100438.53
2023-01-13T01:31:28.128Z,100432.47
2023-01-13T01:34:30.604Z,100432.09
2023-01-13T01:37:33.439Z,100435.94
2023-01-13T01:40:41.633Z,100430.13
2023-01-13T01:44:04.442Z,100420.19
2023-01-13T01:47:07.563Z,100420.03
2023-01-13T01:50:11.090Z,100424.59
2023-01-13T01:53:17.210Z,100425.56
2023-01-13T01:56:20.344Z,100416.56
2023-01-13T01:59:23.763Z,100410.56
2023-01-13T02:02:30.635Z,100408.12
2023-01-13T02:05:34.450Z,100401.41
2023-01-13T02:08:39.209Z,100395.97
2023-01-13T02:12:00.555Z,100406.63
2023-01-13T02:15:12.472Z,100401.00
2023-01-13T02:18:25.690Z,100402.53
2023-01-13T02:21:47.505Z,100399.91
2023-01-13T02:25:03.503Z,100401.50
2023-01-13T02:28:39.278Z,100403.37
2023-01-13T02:31:43.108Z,100392.59
2023-01-13T02:34:55.000Z,100389.31
2023-01-13T02:37:58.731Z,100389.94
2023-01-13T02:41:25.797Z,100385.66
2023-01-13T02:44:53.414Z,100387.81
2023-01-13T02:47:57.830Z,100388.47
2023-01-13T02:51:08.155Z,100381.72
2023-01-13T02:54:15.752Z,100371.78
2023-01-13T02:57:19.728Z,100372.63
2023-01-13T03:00:23.447Z,100365.59
2023-01-13T03:03:26.359Z,100372.81
2023-01-13T03:06:35.017Z,100368.59
2023-01-13T03:09:43.878Z,100368.59
2023-01-13T03:13:04.846Z,100364.94
2023-01-13T03:16:24.074Z,100366.06
2023-01-13T03:19:45.360Z,100358.09
2023-01-13T03:22:57.500Z,100359.75
2023-01-13T03:26:14.423Z,100353.78
2023-01-13T03:29:21.747Z,100350.22
2023-01-13T03:32:31.350Z,100349.47
2023-01-13T03:35:37.853Z,100352.00
2023-01-13T03:38:52.258Z,100353.78
2023-01-13T03:42:00.032Z,100340.75
2023-01-13T03:45:11.203Z,100345.91
2023-01-13T03:48:16.810Z,100338.03
2023-01-13T03:51:20.481Z,100338.97
2023-01-13T03:54:26.038Z,100339.72
2023-01-13T03:57:31.722Z,100345.06
2023-01-13T04:00:42.415Z,100340.47
2023-01-13T04:03:59.192Z,100336.34
2023-01-13T04:07:07.733Z,100343.94
2023-01-13T04:10:12.044Z,100339.72
2023-01-13T04:13:18.124Z,100339.31
2023-01-13T04:16:20.979Z,100344.41
2023-01-13T04:19:23.528Z,100339.06
2023-01-13T04:22:26.369Z,100340.75
2023-01-13T04:25:28.900Z,100345.31
2023-01-13T04:28:33.317Z,100352.94
2023-01-13T04:31:36.043Z,100338.75
2023-01-13T04:34:38.936Z,100350.97
2023-01-13T04:37:41.925Z,100357.16
2023-01-13T04:40:45.317Z,100350.22
2023-01-13T04:43:47.925Z,100351.91
2023-01-13T04:46:50.731Z,100356.94
2023-01-13T04:49:53.178Z,100355.06
2023-01-13T04:52:56.545Z,100359.00
2023-01-13T04:55:59.092Z,100356.75
2023-01-13T04:59:01.999Z,100349.56
2023-01-13T05:02:04.541Z,100351.69
2023-01-13T05:05:07.719Z,100350.94
2023-01-13T05:08:10.284Z,100347.19
2023-01-13T05:11:31.655Z,100352.28
2023-01-13T05:14:52.560Z,100357.69
2023-01-13T05:17:55.373Z,100355.16
2023-01-13T05:20:58.038Z,100362.59
2023-01-13T05:24:19.478Z,100362.28
2023-01-13T05:27:21.997Z,100362.28
2023-01-13T05:30:30.086Z,100369.13
2023-01-13T05:33:34.897Z,100365.06
2023-01-13T05:36:38.543Z,100362.53
2023-01-13T05:39:59.603Z,100358.97
2023-01-13T05:43:20.091Z,100367.59
2023-01-13T05:46:22.707Z,100369.28
2023-01-13T05:49:25.510Z,100365.91
2023-01-13T05:52:28.713Z,100374.44
2023-01-13T05:55:31.612Z,100369.47
2023-01-13T05:58:34.776Z,100374.53
2023-01-13T06:01:37.662Z,100375.56
2023-01-13T06:04:40.579Z,100363.28
2023-01-13T06:07:43.184Z,100372.28
2023-01-13T06:10:47.326Z,100379.44
2023-01-13T06:13:50.015Z,100381.41
2023-01-13T06:16:52.946Z,100377.09
2023-01-13T06:19:55.614Z,100380.38
2023-01-13T06:22:59.286Z,100380.16
2023-01-13T06:26:08.553Z,100387.84
2023-01-13T06:29:14.876Z,100383.72
2023-01-13T06:32:21.528Z,100375.75
2023-01-13T06:35:28.635Z,100375.06
2023-01-13T06:38:35.001Z,100372.75
2023-01-13T06:41:56.615Z,100370.50
2023-01-13T06:44:59.157Z,100377.06
2023-01-13T06:48:02.132Z,100385.97
2023-01-13T06:51:05.108Z,100391.56
2023-01-13T06:54:10.740Z,100390.06
2023-01-13T06:57:13.473Z,100399.22
2023-01-13T07:00:17.465Z,100378.84
2023-01-13T07:03:20.133Z,100398.56
2023-01-13T07:06:23.058Z,100401.34
2023-01-13T07:09:26.145Z,100392.47
2023-01-13T07:12:29.032Z,100400.16
2023-01-13T07:15:31.558Z,100391.72
2023-01-13T07:18:35.267Z,100396.09
2023-01-13T07:21:37.809Z,100398.62
2023-01-13T07:24:40.813Z,100393.47
2023-01-13T07:27:43.284Z,100401.03
2023-01-13T07:30:47.494Z,100401.38
2023-01-13T07:33:50.172Z,100390.41
2023-01-13T07:36:52.969Z,100390.50
2023-01-13T07:39:55.605Z,100399.13
2023-01-13T07:43:17.153Z,100400.91
2023-01-13T07:46:19.756Z,100402.63
2023-01-13T07:49:22.564Z,100412.38
2023-01-13T07:52:25.205Z,100404.09
2023-01-13T07:55:28.023Z,100403.78
2023-01-13T07:58:30.837Z,100411.38
2023-01-13T08:01:33.683Z,100404.69
2023-01-13T08:04:37.043Z,100407.53
2023-01-13T08:07:40.407Z,100420.47
2023-01-13T08:10:43.335Z,100424.88
2023-01-13T08:13:45.811Z,100437.19
2023-01-13T08:16:49.080Z,100423.31
2023-01-13T08:19:51.787Z,100431.41
2023-01-13T08:22:59.072Z,100436.34
2023-01-13T08:26:03.156Z,100437.22
2023-01-13T08:29:05.945Z,100449.84
2023-01-13T08:32:08.466Z,100448.19
2023-01-13T08:35:12.020Z,100443.09
2023-01-13T08:38:14.737Z,100439.81
2023-01-13T08:41:40.245Z,100436.50
2023-01-13T08:44:42.780Z,100441.50
2023-01-13T08:47:45.594Z,100439.41
2023-01-13T08:50:48.348Z,100442.69
2023-01-13T08:53:51.240Z,100453.59
2023-01-13T08:56:53.769Z,100454.37
2023-01-13T08:59:56.563Z,100462.75
2023-01-13T09:02:59.450Z,100458.13
2023-01-13T09:06:02.462Z,100458.97
2023-01-13T09:09:04.975Z,100451.41
2023-01-13T09:12:29.021Z,100447.75
2023-01-13T09:15:31.511Z,100441.53
2023-01-13T09:18:34.434Z,100448.28
2023-01-13T09:21:37.211Z,100451.34
2023-01-13T09:24:40.067Z,100459.75
2023-01-13T09:27:42.602Z,100462.06
2023-01-13T09:30:45.928Z,100456.91
2023-01-13T09:34:07.317Z,100450.59
2023-01-13T09:37:10.169Z,100452.81
2023-01-13T09:40:17.393Z,100458.38
2023-01-13T09:43:41.434Z,100457.00
2023-01-13T09:46:48.941Z,100443.84
2023-01-13T09:49:52.194Z,100444.19
2023-01-13T09:52:55.291Z,100449.97
2023-01-13T09:55:58.131Z,100438.59
2023-01-13T09:59:01.015Z,100452.81
2023-01-13T10:02:19.315Z,100443.22
2023-01-13T10:05:35.063Z,100447.66
2023-01-13T10:08:45.378Z,100438.38
2023-01-13T10:12:08.294Z,100436.28
2023-01-13T10:15:15.940Z,100433.34
2023-01-13T10:18:28.043Z,100431.66
2023-01-13T10:21:59.890Z,100430.59
2023-01-13T10:25:11.902Z,100431.44
2023-01-13T10:28:18.388Z,100432.81
2023-01-13T10:31:22.936Z,100443.03
2023-01-13T10:34:27.030Z,100438.38
2023-01-13T10:37:29.877Z,100439.56
2023-01-13T10:40:34.086Z,100431.75
2023-01-13T10:43:36.863Z,100433.13
2023-01-13T10:46:58.625Z,100421.97
2023-01-13T10:50:01.373Z,100422.59
2023-01-13T10:53:18.345Z,100423.16
2023-01-13T10:56:22.978Z,100417.47
2023-01-13T10:59:27.428Z,100403.22
2023-01-13T11:02:32.838Z,100406.56
2023-01-13T11:05:36.793Z,100398.97
2023-01-13T11:08:47.899Z,100394.25
2023-01-13T11:11:55.448Z,100386.13
2023-01-13T11:15:00.754Z,100389.16
2023-01-13T11:18:26.611Z,100388.09
2023-01-13T11:21:36.826Z,100384.47
2023-01-13T11:24:44.990Z,100380.09
2023-01-13T11:27:53.212Z,100375.28
2023-01-13T11:31:10.964Z,100364.62
2023-01-13T11:34:35.761Z,100358.69
2023-01-13T11:37:40.854Z,100350.91
2023-01-13T11:40:47.066Z,100358.28
2023-01-13T11:43:59.313Z,100350.50
2023-01-13T11:47:02.792Z,100353.53
2023-01-13T11:50:15.182Z,100349.31
2023-01-13T11:53:24.544Z,100351.22
2023-01-13T11:56:45.818Z,100346.25
2023-01-13T12:00:00.979Z,100339.19
2023-01-13T12:03:31.424Z,100322.53
2023-01-13T12:06:38.259Z,100320.97
2023-01-13T12:09:59.607Z,100312.34
2023-01-13T12:13:31.463Z,100302.69
2023-01-13T12:16:34.099Z,100296.25
2023-01-13T12:19:36.993Z,100289.53
2023-01-13T12:22:40.078Z,100284.97
2023-01-13T12:25:45.795Z,100276.88
2023-01-13T12:29:11.744Z,100274.37
2023-01-13T12:32:20.949Z,100269.47
2023-01-13T12:35:28.506Z,100267.06
2023-01-13T12:39:03.232Z,100273.72
2023-01-13T12:42:42.065Z,100274.13
2023-01-13T12:45:44.935Z,100281.97
2023-01-13T12:48:59.496Z,100283.88
2023-01-13T12:52:07.365Z,100294.97
2023-01-13T12:55:13.820Z,100287.19
2023-01-13T12:58:17.825Z,100288.69
2023-01-13T13:01:35.337Z,100276.69
2023-01-13T13:04:47.710Z,100277.31
2023-01-13T13:08:07.436Z,100271.25
2023-01-13T13:11:49.850Z,100269.69
2023-01-13T13:14:52.384Z,100273.06
2023-01-13T13:18:02.615Z,100277.31
2023-01-13T13:21:07.440Z,100299.00
2023-01-13T13:24:11.126Z,100294.50
2023-01-13T13:27:46.739Z,100293.91
2023-01-13T13:31:01.181Z,100290.53
2023-01-13T13:34:12.865Z,100299.56
2023-01-13T13:37:24.266Z,100300.88
2023-01-13T13:40:47.448Z,100302.56
2023-01-13T13:44:09.456Z,100301.50
2023-01-13T13:47:12.240Z,100306.88
2023-01-13T13:50:20.480Z,100301.16
2023-01-13T13:53:26.338Z,100294.78
2023-01-13T13:56:30.681Z,100292.97
2023-01-13T13:59:34.546Z,100289.47
2023-01-13T14:02:37.927Z,100299.47
2023-01-13T14:05:59.585Z,100302.69
2023-01-13T14:09:03.556Z,100297.06
2023-01-13T14:12:16.801Z,100311.69
2023-01-13T14:15:38.994Z,100318.25
2023-01-13T14:18:47.411Z,100315.25
2023-01-13T14:21:49.983Z,100324.09
2023-01-13T14:24:57.501Z,100315.97
2023-01-13T14:28:05.642Z,100318.00
2023-01-13T14:31:09.809Z,100309.78
2023-01-13T14:34:32.658Z,100316.59
2023-01-13T14:37:38.350Z,100317.03
2023-01-13T14:40:45.720Z,100311.19
2023-01-13T14:43:49.954Z,100308.09
2023-01-13T14:46:55.687Z,100305.81
2023-01-13T14:50:22.006Z,100320.97
2023-01-13T14:53:38.598Z,100326.25
2023-01-13T14:56:50.475Z,100326.47
2023-01-13T14:59:59.686Z,100328.03
2023-01-13T15:03:08.058Z,100321.09
2023-01-13T15:06:24.402Z,100324.44
2023-01-13T15:09:40.522Z,100327.19
2023-01-13T15:12:43.283Z,100323.88
2023-01-13T15:15:51.001Z,100330.09
2023-01-13T15:18:54.904Z,100307.19
2023-01-13T15:21:57.651Z,100303.97
2023-01-13T15:25:00.184Z,100313.47
2023-01-13T15:28:04.247Z,100313.59
2023-01-13T15:31:06.767Z,100321.28
2023-01-13T15:34:09.582Z,100317.28
2023-01-13T15:37:12.165Z,100320.62
2023-01-13T15:40:25.490Z,100315.75
2023-01-13T15:43:46.642Z,100314.56
2023-01-13T15:46:50.373Z,100302.69
2023-01-13T15:49:53.095Z,100306.38
2023-01-13T15:52:56.128Z,100315.37
2023-01-13T15:56:00.438Z,100311.66
2023-01-13T15:59:04.882Z,100321.25
2023-01-13T16:02:12.828Z,100314.66
2023-01-13T16:05:15.925Z,100324.56
2023-01-13T16:08:20.083Z,100322.94
2023-01-13T16:11:22.983Z,100330.75
2023-01-13T16:14:25.458Z,100333.78
2023-01-13T16:17:30.108Z,100334.56
2023-01-13T16:20:33.857Z,100333.13
2023-01-13T16:23:36.644Z,100328.31
2023-01-13T16:26:39.282Z,100328.47
2023-01-13T16:29:42.905Z,100324.53
2023-01-13T16:32:45.446Z,100332.37
2023-01-13T16:36:10.504Z,100326.53
2023-01-13T16:39:20.617Z,100321.50
2023-01-13T16:42:23.600Z,100313.31
2023-01-13T16:45:26.693Z,100328.84
2023-01-13T16:48:29.968Z,100322.00
2023-01-13T16:51:33.434Z,100319.00
2023-01-13T16:54:38.368Z,100324.97
2023-01-13T16:57:41.080Z,100317.34
2023-01-13T17:00:46.880Z,100315.78
2023-01-13T17:03:49.844Z,100312.41
2023-01-13T17:07:03.620Z,100312.19
2023-01-13T17:10:06.673Z,100309.62
2023-01-13T17:13:15.997Z,100311.87
2023-01-13T17:16:21.828Z,100311.69
2023-01-13T17:19:25.665Z,100312.63
2023-01-13T17:22:28.319Z,100309.16
2023-01-13T17:25:32.215Z,100299.97
2023-01-13T17:28:35.062Z,100302.09
2023-01-13T17:31:38.050Z,100307.38
2023-01-13T17:34:40.668Z,100309.53
2023-01-13T17:37:43.464Z,100313.00
2023-01-13T17:40:45.961Z,100315.59
2023-01-13T17:43:49.058Z,100320.59
2023-01-13T17:46:51.649Z,100325.75
2023-01-13T17:49:54.474Z,100330.41
2023-01-13T17:52:57.302Z,100340.00
2023-01-13T17:56:00.393Z,100335.94
2023-01-13T17:59:02.896Z,100340.59
2023-01-13T18:02:05.950Z,100337.06
2023-01-13T18:05:09.251Z,100343.00
2023-01-13T18:08:11.967Z,100342.31
2023-01-13T18:11:18.850Z,100338.28
2023-01-13T18:14:22.703Z,100340.62
2023-01-13T18:17:25.482Z,100351.63
2023-01-13T18:20:48.993Z,100347.59
2023-01-13T18:24:15.596Z,100356.44
2023-01-13T18:27:22.618Z,100353.22
2023-01-13T18:30:27.968Z,100347.22
2023-01-13T18:33:32.029Z,100355.00
2023-01-13T18:36:34.880Z,100353.09
2023-01-13T18:39:37.624Z,100355.50
2023-01-13T18:42:58.253Z,100351.69
2023-01-13T18:46:00.838Z,100359.09
2023-01-13T18:49:03.737Z,100355.06
2023-01-13T18:52:06.213Z,100355.53
2023-01-13T18:55:09.727Z,100353.25
2023-01-13T18:58:12.878Z,100356.84
2023-01-13T19:01:16.468Z,100352.41
2023-01-13T19:04:19.043Z,100362.91
2023-01-13T19:07:24.187Z,100361.22
2023-01-13T19:10:31.729Z,100361.41
2023-01-13T19:13:35.270Z,100370.69
2023-01-13T19:16:37.872Z,100375.13
2023-01-13T19:19:43.771Z,100367.72
2023-01-13T19:22:55.881Z,100375.28
2023-01-13T19:26:02.808Z,100376.37
2023-01-13T19:29:05.591Z,100371.34
2023-01-13T19:32:08.961Z,100376.37
2023-01-13T19:35:13.194Z,100375.28
2023-01-13T19:38:18.327Z,100377.66
2023-01-13T19:41:53.977Z,100386.50
2023-01-13T19:45:16.504Z,100392.28
2023-01-13T19:48:19.644Z,100390.94
2023-01-13T19:51:22.733Z,100392.09
2023-01-13T19:54:28.118Z,100401.97
2023-01-13T19:57:31.041Z,100406.06
2023-01-13T20:00:34.899Z,100409.66
2023-01-13T20:03:38.125Z,100414.66
2023-01-13T20:06:41.246Z,100429.41
2023-01-13T20:09:44.835Z,100432.03
2023-01-13T20:12:47.587Z,100441.03
2023-01-13T20:15:50.600Z,100449.12
2023-01-13T20:18:53.526Z,100440.50
2023-01-13T20:21:56.503Z,100448.94
2023-01-13T20:24:59.322Z,100449.53
2023-01-13T20:28:02.547Z,100436.59
2023-01-13T20:31:09.951Z,100433.28
2023-01-13T20:34:14.670Z,100439.84
2023-01-13T20:37:17.143Z,100424.03
2023-01-13T20:40:20.763Z,100426.19
2023-01-13T20:43:23.255Z,100429.44
2023-01-13T20:46:26.215Z,100430.03
2023-01-13T20:49:30.201Z,100411.56
2023-01-13T20:52:33.586Z,100421.81
2023-01-13T20:55:39.678Z,100419.91
2023-01-13T20:58:43.981Z,100419.50
2023-01-13T21:01:46.964Z,100417.00
2023-01-13T21:04:49.981Z,100418.06
2023-01-13T21:07:52.488Z,100423.22
2023-01-13T21:11:04.541Z,100438.94
2023-01-13T21:14:40.849Z,100435.09
2023-01-13T21:18:03.243Z,100444.94
2023-01-13T21:21:12.106Z,100449.81
2023-01-13T21:24:15.040Z,100454.88
2023-01-13T21:27:17.855Z,100445.38
2023-01-13T21:30:21.264Z,100423.25
2023-01-13T21:33:24.364Z,100422.28
2023-01-13T21:36:28.007Z,100423.00
2023-01-13T21:39:30.748Z,100412.22
2023-01-13T21:42:52.365Z,100410.69
2023-01-13T21:46:13.528Z,100407.63
2023-01-13T21:49:16.442Z,100391.38
2023-01-13T21:52:19.252Z,100395.81
2023-01-13T21:55:25.332Z,100405.25
2023-01-13T21:58:27.783Z,100397.34
2023-01-13T22:01:30.618Z,100384.88
2023-01-13T22:04:33.565Z,100389.44
2023-01-13T22:07:37.201Z,100373.88
2023-01-13T22:10:58.588Z,100369.44
2023-01-13T22:14:08.653Z,100377.69
2023-01-13T22:17:14.425Z,100378.06
2023-01-13T22:20:18.377Z,100391.84
2023-01-13T22:23:21.560Z,100397.59
2023-01-13T22:26:24.096Z,100404.56
2023-01-13T22:29:26.925Z,100421.31
2023-01-13T22:32:29.426Z,100460.13
2023-01-13T22:35:32.256Z,100484.44
2023-01-13T22:38:35.107Z,100494.13
2023-01-13T22:41:38.052Z,100500.53
2023-01-13T22:44:40.800Z,100496.53
2023-01-13T22:47:43.698Z,100497.63
2023-01-13T22:50:46.480Z,100496.50
2023-01-13T22:53:49.335Z,100499.00
2023-01-13T22:56:51.810Z,100496.16
2023-01-13T22:59:54.635Z,100493.97
2023-01-13T23:02:57.324Z,100499.16
2023-01-13T23:06:00.311Z,100496.19
2023-01-13T23:09:02.850Z,100502.06
2023-01-13T23:12:05.988Z,100489.22
2023-01-13T23:15:08.740Z,100469.38
2023-01-13T23:18:11.512Z,100472.44
2023-01-13T23:21:22.754Z,100455.16
2023-01-13T23:24:26.608Z,100450.63
2023-01-13T23:27:29.143Z,100444.03
2023-01-13T23:30:32.862Z,100437.19
2023-01-13T23:33:37.613Z,100429.84
2023-01-13T23:36:41.784Z,100421.88
2023-01-13T23:39:44.631Z,100435.69
2023-01-13T23:42:47.427Z,100427.44
2023-01-13T23:45:50.272Z,100428.47
2023-01-13T23:48:55.072Z,100411.84
2023-01-13T23:51:57.588Z,100405.34
2023-01-13T23:55:00.688Z,100399.81
2023-01-13T23:58:04.382Z,100411.69
